createdAt,value
2022-10-21T00:01:56.255Z,16.73
2022-10-21T00:04:23.106Z,16.80
2022-10-21T00:06:49.916Z,16.50
2022-10-21T00:09:18.048Z,16.27
2022-10-21T00:11:44.892Z,15.40
2022-10-21T00:14:11.674Z,15.87
2022-10-21T00:16:38.533Z,15.73
2022-10-21T00:19:05.418Z,15.53
2022-10-21T00:21:32.215Z,16.20
2022-10-21T00:23:59.015Z,16.03
2022-10-21T00:26:27.169Z,15.50
2022-10-21T00:28:55.623Z,15.57
2022-10-21T00:31:23.371Z,15.60
2022-10-21T00:33:50.190Z,15.77
2022-10-21T00:36:17.102Z,15.73
2022-10-21T00:38:45.162Z,15.53
2022-10-21T00:41:12.455Z,16.73
2022-10-21T00:43:57.714Z,16.03
2022-10-21T00:46:32.793Z,16.03
2022-10-21T00:49:01.726Z,16.17
2022-10-21T00:51:28.936Z,16.27
2022-10-21T00:53:55.906Z,16.93
2022-10-21T00:56:26.705Z,16.60
2022-10-21T00:58:57.653Z,15.80
2022-10-21T01:01:24.996Z,16.30
2022-10-21T01:03:51.890Z,16.50
2022-10-21T01:06:21.732Z,15.37
2022-10-21T01:08:48.843Z,15.97
2022-10-21T01:11:18.138Z,16.67
2022-10-21T01:13:58.378Z,16.07
2022-10-21T01:16:34.361Z,17.27
2022-10-21T01:19:10.027Z,16.23
2022-10-21T01:21:41.312Z,16.63
2022-10-21T01:24:52.944Z,16.87
2022-10-21T01:27:32.981Z,17.00
2022-10-21T01:30:35.054Z,16.50
2022-10-21T01:33:36.121Z,16.63
2022-10-21T01:36:13.247Z,15.93
2022-10-21T01:38:43.867Z,16.67
2022-10-21T01:41:17.115Z,16.23
2022-10-21T01:43:49.766Z,15.97
2022-10-21T01:46:26.046Z,16.70
2022-10-21T01:48:57.982Z,15.50
2022-10-21T01:51:28.197Z,15.83
2022-10-21T01:54:02.719Z,15.73
2022-10-21T01:56:30.443Z,15.37
2022-10-21T01:58:58.892Z,15.83
2022-10-21T02:01:27.957Z,17.07
2022-10-21T02:03:58.851Z,16.17
2022-10-21T02:06:25.694Z,15.53
2022-10-21T02:08:52.734Z,16.20
2022-10-21T02:11:19.762Z,15.83
2022-10-21T02:13:52.937Z,15.93
2022-10-21T02:16:25.082Z,16.00
2022-10-21T02:18:54.204Z,15.57
2022-10-21T02:21:25.721Z,14.93
2022-10-21T02:23:55.247Z,16.43
2022-10-21T02:26:23.265Z,17.40
2022-10-21T02:28:50.778Z,16.20
2022-10-21T02:31:34.645Z,16.07
2022-10-21T02:34:09.870Z,17.47
2022-10-21T02:36:48.021Z,15.70
2022-10-21T02:39:20.193Z,17.47
2022-10-21T02:41:49.512Z,15.43
2022-10-21T02:44:16.532Z,15.97
2022-10-21T02:46:44.907Z,17.00
2022-10-21T02:49:13.382Z,15.87
2022-10-21T02:51:40.826Z,16.20
2022-10-21T02:54:07.708Z,17.27
2022-10-21T02:56:35.323Z,17.40
2022-10-21T02:59:02.295Z,16.27
2022-10-21T03:01:29.428Z,16.47
2022-10-21T03:03:56.389Z,16.83
2022-10-21T03:06:24.565Z,16.83
2022-10-21T03:08:51.465Z,17.77
2022-10-21T03:11:18.287Z,17.67
2022-10-21T03:13:45.081Z,17.87
2022-10-21T03:16:11.888Z,16.73
2022-10-21T03:18:38.727Z,17.53
2022-10-21T03:21:05.834Z,17.30
2022-10-21T03:23:34.061Z,17.37
2022-10-21T03:26:00.982Z,19.37
2022-10-21T03:28:27.873Z,19.20
2022-10-21T03:30:55.025Z,17.83
2022-10-21T03:33:21.846Z,18.00
2022-10-21T03:35:48.645Z,18.50
2022-10-21T03:38:15.461Z,18.63
2022-10-21T03:40:43.647Z,17.40
2022-10-21T03:43:10.434Z,18.17
2022-10-21T03:45:37.222Z,19.13
2022-10-21T03:48:04.200Z,17.93
2022-10-21T03:50:30.999Z,18.63
2022-10-21T03:52:59.205Z,19.37
2022-10-21T03:55:26.497Z,18.60
2022-10-21T03:57:54.761Z,17.97
2022-10-21T04:00:22.111Z,18.70
2022-10-21T04:02:49.505Z,19.00
2022-10-21T04:05:16.645Z,18.30
2022-10-21T04:07:43.520Z,17.63
2022-10-21T04:10:11.098Z,18.17
2022-10-21T04:12:38.287Z,18.10
2022-10-21T04:15:08.223Z,18.27
2022-10-21T04:17:35.028Z,16.97
2022-10-21T04:20:01.899Z,17.10
2022-10-21T04:22:28.855Z,16.07
2022-10-21T04:24:56.475Z,17.60
2022-10-21T04:27:24.506Z,17.70
2022-10-21T04:29:51.327Z,18.13
2022-10-21T04:32:19.515Z,18.40
2022-10-21T04:34:46.298Z,19.57
2022-10-21T04:37:13.173Z,18.93
2022-10-21T04:39:40.018Z,19.20
2022-10-21T04:42:06.748Z,18.27
2022-10-21T04:44:33.538Z,19.23
2022-10-21T04:47:00.354Z,19.47
2022-10-21T04:49:28.466Z,19.07
2022-10-21T04:51:55.401Z,18.27
2022-10-21T04:54:22.202Z,18.13
2022-10-21T04:56:49.187Z,17.27
2022-10-21T04:59:15.953Z,17.47
2022-10-21T05:01:42.780Z,18.17
2022-10-21T05:04:09.563Z,17.80
2022-10-21T05:06:37.804Z,18.63
2022-10-21T05:09:04.683Z,17.93
2022-10-21T05:11:31.528Z,17.17
2022-10-21T05:13:58.366Z,17.67
2022-10-21T05:16:25.347Z,18.27
2022-10-21T05:18:52.152Z,18.50
2022-10-21T05:21:18.932Z,17.40
2022-10-21T05:23:47.074Z,16.77
2022-10-21T05:26:13.868Z,18.07
2022-10-21T05:28:40.643Z,19.10
2022-10-21T05:31:07.493Z,18.23
2022-10-21T05:33:34.323Z,18.80
2022-10-21T05:36:02.565Z,19.60
2022-10-21T05:38:29.846Z,18.07
2022-10-21T05:40:58.162Z,18.03
2022-10-21T05:43:25.723Z,16.93
2022-10-21T05:45:52.603Z,18.60
2022-10-21T05:48:19.737Z,18.23
2022-10-21T05:50:47.065Z,18.00
2022-10-21T05:53:14.737Z,18.30
2022-10-21T05:55:41.567Z,19.43
2022-10-21T05:58:09.740Z,19.57
2022-10-21T06:00:36.748Z,19.17
2022-10-21T06:03:03.584Z,18.03
2022-10-21T06:05:30.370Z,17.97
2022-10-21T06:07:57.226Z,19.13
2022-10-21T06:10:28.191Z,18.17
2022-10-21T06:12:56.059Z,18.73
2022-10-21T06:15:24.214Z,20.27
2022-10-21T06:17:51.836Z,18.10
2022-10-21T06:20:18.908Z,16.43
2022-10-21T06:22:45.687Z,17.77
2022-10-21T06:25:12.635Z,16.27
2022-10-21T06:27:39.779Z,16.33
2022-10-21T06:30:07.991Z,16.63
2022-10-21T06:32:36.191Z,16.47
2022-10-21T06:35:03.196Z,17.03
2022-10-21T06:37:29.985Z,17.10
2022-10-21T06:39:56.906Z,17.10
2022-10-21T06:42:23.624Z,16.90
2022-10-21T06:44:50.494Z,17.20
2022-10-21T06:47:17.362Z,16.07
2022-10-21T06:49:45.556Z,16.87
2022-10-21T06:52:12.379Z,16.43
2022-10-21T06:54:39.194Z,17.63
2022-10-21T06:57:05.966Z,18.20
2022-10-21T06:59:33.032Z,16.73
2022-10-21T07:02:00.922Z,16.03
2022-10-21T07:04:28.890Z,16.47
2022-10-21T07:06:57.390Z,16.80
2022-10-21T07:09:24.429Z,15.27
2022-10-21T07:11:51.317Z,16.50
2022-10-21T07:14:18.234Z,18.13
2022-10-21T07:16:45.330Z,20.00
2022-10-21T07:19:12.165Z,17.27
2022-10-21T07:21:39.093Z,17.93
2022-10-21T07:24:07.363Z,17.97
2022-10-21T07:26:34.869Z,16.73
2022-10-21T07:29:02.351Z,17.30
2022-10-21T07:31:31.903Z,17.53
2022-10-21T07:33:59.624Z,15.67
2022-10-21T07:36:29.034Z,16.87
2022-10-21T07:38:59.149Z,17.03
2022-10-21T07:41:30.068Z,16.87
2022-10-21T07:43:58.115Z,16.70
2022-10-21T07:46:25.070Z,17.97
2022-10-21T07:48:52.016Z,18.17
2022-10-21T07:51:22.385Z,17.27
2022-10-21T07:53:52.673Z,18.67
2022-10-21T07:56:22.658Z,17.60
2022-10-21T07:58:51.489Z,16.63
2022-10-21T08:01:19.894Z,16.83
2022-10-21T08:03:47.482Z,16.90
2022-10-21T08:06:17.691Z,13.00
2022-10-21T08:08:45.306Z,12.83
2022-10-21T08:11:19.888Z,12.83
2022-10-21T08:13:46.760Z,12.50
2022-10-21T08:16:14.991Z,11.37
2022-10-21T08:18:41.803Z,12.07
2022-10-21T08:21:08.653Z,12.07
2022-10-21T08:23:36.346Z,13.20
2022-10-21T08:26:03.548Z,12.20
2022-10-21T08:28:31.605Z,12.20
2022-10-21T08:31:06.602Z,12.90
2022-10-21T08:33:35.157Z,12.17
2022-10-21T08:36:05.585Z,13.30
2022-10-21T08:38:32.657Z,13.27
2022-10-21T08:41:00.866Z,12.70
2022-10-21T08:43:31.357Z,13.53
2022-10-21T08:46:02.720Z,14.40
2022-10-21T08:48:33.495Z,13.00
2022-10-21T08:51:03.820Z,13.50
2022-10-21T08:53:36.466Z,12.80
2022-10-21T08:56:07.113Z,12.57
2022-10-21T08:58:34.248Z,12.43
2022-10-21T09:01:05.085Z,12.97
2022-10-21T09:03:41.235Z,13.20
2022-10-21T09:06:21.363Z,12.30
2022-10-21T09:09:00.348Z,12.30
2022-10-21T09:11:46.784Z,11.77
2022-10-21T09:14:54.496Z,11.07
2022-10-21T09:17:28.955Z,12.23
2022-10-21T09:20:02.991Z,12.93
2022-10-21T09:22:55.194Z,11.30
2022-10-21T09:25:26.476Z,12.53
2022-10-21T09:27:56.840Z,11.47
2022-10-21T09:30:25.463Z,12.23
2022-10-21T09:32:57.407Z,11.30
2022-10-21T09:35:31.671Z,12.33
2022-10-21T09:38:05.503Z,11.73
2022-10-21T09:40:33.926Z,11.07
2022-10-21T09:43:02.529Z,10.33
2022-10-21T09:45:34.319Z,11.13
2022-10-21T09:48:04.642Z,10.40
2022-10-21T09:50:34.291Z,10.10
2022-10-21T09:53:08.052Z,11.40
2022-10-21T09:55:35.461Z,11.30
2022-10-21T09:58:04.600Z,11.33
2022-10-21T10:00:46.052Z,16.90
2022-10-21T10:03:31.454Z,11.57
2022-10-21T10:05:58.734Z,11.50
2022-10-21T10:08:32.630Z,10.60
2022-10-21T10:11:04.502Z,10.97
2022-10-21T10:13:32.273Z,11.13
2022-10-21T10:16:31.158Z,10.70
2022-10-21T10:19:14.655Z,11.57
2022-10-21T10:21:41.571Z,10.37
2022-10-21T10:24:16.807Z,11.00
2022-10-21T10:26:44.390Z,12.23
2022-10-21T10:29:26.775Z,9.00
2022-10-21T10:31:56.064Z,8.97
2022-10-21T10:34:27.165Z,8.60
2022-10-21T10:37:01.485Z,7.63
2022-10-21T10:39:32.114Z,6.67
2022-10-21T10:41:59.433Z,7.23
2022-10-21T10:44:32.310Z,7.00
2022-10-21T10:47:01.475Z,6.80
2022-10-21T10:49:36.374Z,6.60
2022-10-21T10:52:06.756Z,6.50
2022-10-21T10:54:35.675Z,6.10
2022-10-21T10:57:05.487Z,7.10
2022-10-21T10:59:38.366Z,7.27
2022-10-21T11:02:22.050Z,6.77
2022-10-21T11:05:01.150Z,7.17
2022-10-21T11:07:33.004Z,7.60
2022-10-21T11:10:07.026Z,7.73
2022-10-21T11:12:34.178Z,7.00
2022-10-21T11:15:01.487Z,7.60
2022-10-21T11:17:33.525Z,6.53
2022-10-21T11:20:08.389Z,5.60
2022-10-21T11:22:41.925Z,4.73
2022-10-21T11:25:20.512Z,5.23
2022-10-21T11:27:59.862Z,4.97
2022-10-21T11:30:39.880Z,5.10
2022-10-21T11:33:18.576Z,5.00
2022-10-21T11:35:57.756Z,5.00
2022-10-21T11:38:40.552Z,5.37
2022-10-21T11:41:22.877Z,5.80
2022-10-21T11:44:04.205Z,5.43
2022-10-21T11:46:39.417Z,5.07
2022-10-21T11:49:22.868Z,4.83
2022-10-21T11:51:59.748Z,5.00
2022-10-21T11:54:56.630Z,5.03
2022-10-21T11:57:39.489Z,5.10
2022-10-21T12:00:12.558Z,4.40
2022-10-21T12:02:44.151Z,4.73
2022-10-21T12:05:28.718Z,4.63
2022-10-21T12:08:13.111Z,4.60
2022-10-21T12:10:45.965Z,4.57
2022-10-21T12:13:20.073Z,4.50
2022-10-21T12:15:50.462Z,4.33
2022-10-21T12:18:22.073Z,4.60
2022-10-21T12:20:53.487Z,5.00
2022-10-21T12:23:22.530Z,4.50
2022-10-21T12:26:00.510Z,4.83
2022-10-21T12:28:34.210Z,5.23
2022-10-21T12:31:10.827Z,5.10
2022-10-21T12:33:40.712Z,5.00
2022-10-21T12:36:39.505Z,5.10
2022-10-21T12:39:10.262Z,5.17
2022-10-21T12:41:38.360Z,4.50
2022-10-21T12:44:24.351Z,4.40
2022-10-21T12:46:53.652Z,4.70
2022-10-21T12:49:28.241Z,4.60
2022-10-21T12:51:58.504Z,3.77
2022-10-21T12:54:30.592Z,3.83
2022-10-21T12:57:03.225Z,3.20
2022-10-21T12:59:34.574Z,2.80
2022-10-21T13:02:28.652Z,3.40
2022-10-21T13:04:57.739Z,2.80
2022-10-21T13:07:38.326Z,2.70
2022-10-21T13:10:29.415Z,2.70
2022-10-21T13:13:31.899Z,2.70
2022-10-21T13:16:22.041Z,2.70
2022-10-21T13:18:54.048Z,2.73
2022-10-21T13:21:41.041Z,2.30
2022-10-21T13:24:20.853Z,2.23
2022-10-21T13:26:50.441Z,2.70
2022-10-21T13:29:30.301Z,2.03
2022-10-21T13:32:32.451Z,2.60
2022-10-21T13:35:27.832Z,2.77
2022-10-21T13:37:59.003Z,2.53
2022-10-21T13:40:37.528Z,2.67
2022-10-21T13:43:11.366Z,3.10
2022-10-21T13:45:45.949Z,2.93
2022-10-21T13:48:17.476Z,3.10
2022-10-21T13:50:46.988Z,2.93
2022-10-21T13:53:26.685Z,2.37
2022-10-21T13:55:55.923Z,3.40
2022-10-21T13:58:23.764Z,3.10
2022-10-21T14:00:56.240Z,2.60
2022-10-21T14:03:27.904Z,2.47
2022-10-21T14:05:58.766Z,2.43
2022-10-21T14:08:28.578Z,2.63
2022-10-21T14:10:58.982Z,2.60
2022-10-21T14:13:31.674Z,2.63
2022-10-21T14:15:59.577Z,2.73
2022-10-21T14:18:33.675Z,2.60
2022-10-21T14:21:04.698Z,2.37
2022-10-21T14:23:31.812Z,3.20
2022-10-21T14:26:08.177Z,2.87
2022-10-21T14:28:37.104Z,3.20
2022-10-21T14:33:39.298Z,2.83
2022-10-21T14:36:14.906Z,2.90
2022-10-21T14:38:44.954Z,2.97
2022-10-21T14:41:19.008Z,2.37
2022-10-21T14:43:47.863Z,2.93
2022-10-21T14:46:15.385Z,3.43
2022-10-21T14:48:48.321Z,3.20
2022-10-21T14:51:21.213Z,2.77
2022-10-21T14:53:52.559Z,3.00
2022-10-21T14:56:23.162Z,3.50
2022-10-21T14:58:56.275Z,3.10
2022-10-21T15:01:23.839Z,2.93
2022-10-21T15:03:54.651Z,3.10
2022-10-21T15:06:23.255Z,2.73
2022-10-21T15:09:06.799Z,2.70
2022-10-21T15:11:42.126Z,2.87
2022-10-21T15:14:31.998Z,2.80
2022-10-21T15:17:02.373Z,2.60
2022-10-21T15:19:42.442Z,3.20
2022-10-21T15:22:23.189Z,3.63
2022-10-21T15:24:51.746Z,4.90
2022-10-21T15:27:24.803Z,2.93
2022-10-21T15:29:52.113Z,2.87
2022-10-21T15:32:22.222Z,3.80
2022-10-21T15:34:53.237Z,3.70
2022-10-21T15:37:20.359Z,2.77
2022-10-21T15:39:48.548Z,3.30
2022-10-21T15:42:22.450Z,2.90
2022-10-21T15:44:50.387Z,3.27
2022-10-21T15:47:17.468Z,2.50
2022-10-21T15:49:46.429Z,3.17
2022-10-21T15:52:14.813Z,2.23
2022-10-21T15:54:42.214Z,2.70
2022-10-21T15:57:16.769Z,2.40
2022-10-21T15:59:43.691Z,3.30
2022-10-21T16:02:15.556Z,2.90
2022-10-21T16:04:44.563Z,2.63
2022-10-21T16:07:25.164Z,2.80
2022-10-21T16:09:52.350Z,2.67
2022-10-21T16:12:22.302Z,3.67
2022-10-21T16:14:49.213Z,3.10
2022-10-21T16:17:16.315Z,3.10
2022-10-21T16:19:43.286Z,3.10
2022-10-21T16:22:14.406Z,4.53
2022-10-21T16:24:42.631Z,3.93
2022-10-21T16:27:11.388Z,3.07
2022-10-21T16:29:38.279Z,3.80
2022-10-21T16:32:05.704Z,3.83
2022-10-21T16:34:32.770Z,4.27
2022-10-21T16:37:00.422Z,4.33
2022-10-21T16:39:27.515Z,3.70
2022-10-21T16:41:55.723Z,3.13
2022-10-21T16:44:22.541Z,3.27
2022-10-21T16:46:52.057Z,3.17
2022-10-21T16:49:22.548Z,3.53
2022-10-21T16:51:49.982Z,3.77
2022-10-21T16:54:18.243Z,4.00
2022-10-21T16:56:45.292Z,3.30
2022-10-21T16:59:13.492Z,3.20
2022-10-21T17:01:40.509Z,4.00
2022-10-21T17:04:07.697Z,3.63
2022-10-21T17:06:34.689Z,3.07
2022-10-21T17:09:01.653Z,4.10
2022-10-21T17:11:33.166Z,3.80
2022-10-21T17:14:00.531Z,4.23
2022-10-21T17:16:29.675Z,4.00
2022-10-21T17:18:56.581Z,3.50
2022-10-21T17:21:25.856Z,2.90
2022-10-21T17:23:54.217Z,3.97
2022-10-21T17:26:21.473Z,3.27
2022-10-21T17:28:48.752Z,3.40
2022-10-21T17:31:16.887Z,3.90
2022-10-21T17:33:45.852Z,3.23
2022-10-21T17:36:13.083Z,3.10
2022-10-21T17:38:41.758Z,3.43
2022-10-21T17:41:08.876Z,3.43
2022-10-21T17:43:35.940Z,3.97
2022-10-21T17:46:02.772Z,3.47
2022-10-21T17:48:29.789Z,4.80
2022-10-21T17:51:02.088Z,5.53
2022-10-21T17:53:30.040Z,5.13
2022-10-21T17:55:58.194Z,4.70
2022-10-21T17:58:25.570Z,4.20
2022-10-21T18:00:52.709Z,6.23
2022-10-21T18:03:19.712Z,4.73
2022-10-21T18:05:47.309Z,4.50
2022-10-21T18:08:15.566Z,4.70
2022-10-21T18:10:42.446Z,4.30
2022-10-21T18:13:09.568Z,4.33
2022-10-21T18:15:37.825Z,4.20
2022-10-21T18:18:04.870Z,4.43
2022-10-21T18:20:35.471Z,4.73
2022-10-21T18:23:02.327Z,4.60
2022-10-21T18:25:30.636Z,4.70
2022-10-21T18:27:57.491Z,4.30
2022-10-21T18:30:24.422Z,4.10
2022-10-21T18:32:51.293Z,3.73
2022-10-21T18:35:18.299Z,4.03
2022-10-21T18:37:45.311Z,4.33
2022-10-21T18:40:12.361Z,4.63
2022-10-21T18:42:40.539Z,4.10
2022-10-21T18:45:08.186Z,4.13
2022-10-21T18:47:35.007Z,3.57
2022-10-21T18:50:01.872Z,3.50
2022-10-21T18:52:28.779Z,3.43
2022-10-21T18:54:55.675Z,3.00
2022-10-21T18:57:22.490Z,3.33
2022-10-21T18:59:50.723Z,3.73
2022-10-21T19:02:22.062Z,3.70
2022-10-21T19:04:49.013Z,4.17
2022-10-21T19:07:16.437Z,3.90
2022-10-21T19:09:43.472Z,4.00
2022-10-21T19:12:12.018Z,3.80
2022-10-21T19:14:41.361Z,4.20
2022-10-21T19:17:10.206Z,4.50
2022-10-21T19:19:39.522Z,3.97
2022-10-21T19:22:06.527Z,4.80
2022-10-21T19:24:33.415Z,4.60
2022-10-21T19:27:00.419Z,4.03
2022-10-21T19:29:27.619Z,4.57
2022-10-21T19:31:56.585Z,4.23
2022-10-21T19:34:28.531Z,4.50
2022-10-21T19:36:55.812Z,4.90
2022-10-21T19:39:22.665Z,4.90
2022-10-21T19:41:49.618Z,4.53
2022-10-21T19:44:17.350Z,8.00
2022-10-21T19:46:44.757Z,4.70
2022-10-21T19:49:13.082Z,4.67
2022-10-21T19:51:41.346Z,4.33
2022-10-21T19:54:10.396Z,4.03
2022-10-21T19:56:37.261Z,4.13
2022-10-21T19:59:05.600Z,4.90
2022-10-21T20:01:33.485Z,4.20
2022-10-21T20:04:01.880Z,3.93
2022-10-21T20:06:30.574Z,3.70
2022-10-21T20:09:01.057Z,3.73
2022-10-21T20:11:29.303Z,3.83
2022-10-21T20:13:56.833Z,3.93
2022-10-21T20:16:26.526Z,4.10
2022-10-21T20:18:53.815Z,4.30
2022-10-21T20:21:21.067Z,5.20
2022-10-21T20:23:47.948Z,4.50
2022-10-21T20:26:16.268Z,4.43
2022-10-21T20:28:43.232Z,4.80
2022-10-21T20:31:12.191Z,4.57
2022-10-21T20:33:41.242Z,4.50
2022-10-21T20:36:11.394Z,4.83
2022-10-21T20:38:38.541Z,4.63
2022-10-21T20:41:07.278Z,5.07
2022-10-21T20:43:37.006Z,4.17
2022-10-21T20:46:05.384Z,4.67
2022-10-21T20:48:32.990Z,4.70
2022-10-21T20:51:03.757Z,4.73
2022-10-21T20:53:31.879Z,4.83
2022-10-21T20:55:59.577Z,4.50
2022-10-21T20:58:26.994Z,4.27
2022-10-21T21:00:55.498Z,4.57
2022-10-21T21:03:22.852Z,4.47
2022-10-21T21:05:49.668Z,4.13
2022-10-21T21:08:16.599Z,4.30
2022-10-21T21:10:43.427Z,4.60
2022-10-21T21:13:10.363Z,4.10
2022-10-21T21:15:37.200Z,4.20
2022-10-21T21:18:11.396Z,4.30
2022-10-21T21:20:38.275Z,4.60
2022-10-21T21:23:05.119Z,4.33
2022-10-21T21:25:31.993Z,4.20
2022-10-21T21:27:58.877Z,4.43
2022-10-21T21:30:25.677Z,5.57
2022-10-21T21:32:52.502Z,5.57
2022-10-21T21:35:20.714Z,5.17
2022-10-21T21:37:47.528Z,5.47
2022-10-21T21:40:14.400Z,5.20
2022-10-21T21:42:41.421Z,5.30
2022-10-21T21:45:09.737Z,5.30
2022-10-21T21:47:36.578Z,5.67
2022-10-21T21:50:03.732Z,5.53
2022-10-21T21:52:32.209Z,4.97
2022-10-21T21:54:59.066Z,6.50
2022-10-21T21:57:28.028Z,6.47
2022-10-21T21:59:55.267Z,6.00
2022-10-21T22:02:22.087Z,5.43
2022-10-21T22:04:48.937Z,5.07
2022-10-21T22:07:15.825Z,5.07
2022-10-21T22:09:44.055Z,5.27
2022-10-21T22:12:14.387Z,5.20
2022-10-21T22:14:41.867Z,6.00
2022-10-21T22:17:08.774Z,5.60
2022-10-21T22:19:35.772Z,5.77
2022-10-21T22:22:02.666Z,5.17
2022-10-21T22:24:31.676Z,5.47
2022-10-21T22:26:59.980Z,5.13
2022-10-21T22:29:26.846Z,5.63
2022-10-21T22:31:53.717Z,4.90
2022-10-21T22:34:20.487Z,5.70
2022-10-21T22:36:47.296Z,5.13
2022-10-21T22:39:14.172Z,4.80
2022-10-21T22:41:40.967Z,4.60
2022-10-21T22:44:10.362Z,3.97
2022-10-21T22:46:37.520Z,4.17
2022-10-21T22:49:05.113Z,4.07
2022-10-21T22:51:32.260Z,3.53
2022-10-21T22:53:59.138Z,4.20
2022-10-21T22:56:27.822Z,4.40
2022-10-21T22:58:54.863Z,3.80
2022-10-21T23:01:24.108Z,3.47
2022-10-21T23:03:51.977Z,3.60
2022-10-21T23:06:18.750Z,4.00
2022-10-21T23:08:45.653Z,3.63
2022-10-21T23:11:12.487Z,4.17
2022-10-21T23:13:51.031Z,3.77
2022-10-21T23:16:27.426Z,3.13
2022-10-21T23:18:54.242Z,3.40
2022-10-21T23:21:21.415Z,3.40
2022-10-21T23:23:48.225Z,3.13
2022-10-21T23:26:14.994Z,3.40
2022-10-21T23:28:41.770Z,3.27
2022-10-21T23:31:08.661Z,4.17
2022-10-21T23:33:36.862Z,5.10
2022-10-21T23:36:04.030Z,4.17
2022-10-21T23:38:30.821Z,3.40
2022-10-21T23:40:57.777Z,3.20
2022-10-21T23:43:24.612Z,4.00
2022-10-21T23:45:51.453Z,3.70
2022-10-21T23:48:18.270Z,3.70
2022-10-21T23:50:46.402Z,3.70
2022-10-21T23:53:13.415Z,4.47
2022-10-21T23:55:40.286Z,4.10
2022-10-21T23:58:07.625Z,4.00
